Youngsville, North Carolina
Current Conditions -  °F | °C
As of 11:55 AM on Saturday 22 Nov 2014 (Local Time) from KLHZ Reporting Station
Clear Clear  
Wind Chill: 44°   Ceiling: Unl
Heat Index: 46°   Visibility: 10mi
Dew Point: 12°   Wind: 5mph
Humidity: 25%   Direction: 190°S
Pressure: 30.52"   Gusts: NA
Location:  36.02°N, 78.47°W
Report Text: KLHZ 221655Z AUTO 19004KT 10SM CLR 08/M11 A3052 RMK AO2
Loading
Personal Weather Stations






























Interactive Weather Map New forecast layout! Learn more

10-Day Weather Forecast

Advertisements
Track Severe Weather on mobile